createdAt,value
2023-05-05T00:02:25.526Z,23.71
2023-05-05T00:04:55.189Z,23.80
2023-05-05T00:07:24.810Z,23.70
2023-05-05T00:09:54.420Z,23.75
2023-05-05T00:12:24.084Z,23.79
2023-05-05T00:14:53.733Z,23.79
2023-05-05T00:17:23.780Z,23.75
2023-05-05T00:19:53.892Z,23.76
2023-05-05T00:22:23.629Z,23.76
2023-05-05T00:24:53.296Z,23.76
2023-05-05T00:27:22.926Z,23.84
2023-05-05T00:29:52.759Z,23.74
2023-05-05T00:32:22.396Z,23.69
2023-05-05T00:34:52.078Z,23.76
2023-05-05T00:37:21.743Z,23.79
2023-05-05T00:39:51.364Z,23.78
2023-05-05T00:42:20.998Z,23.78
2023-05-05T00:44:50.657Z,23.67
2023-05-05T00:47:20.254Z,23.66
2023-05-05T00:49:49.902Z,23.59
2023-05-05T00:52:19.574Z,23.67
2023-05-05T00:54:49.248Z,23.70
2023-05-05T00:57:18.845Z,23.65
2023-05-05T00:59:48.569Z,23.64
2023-05-05T01:02:18.204Z,23.65
2023-05-05T01:04:47.937Z,23.75
2023-05-05T01:07:29.193Z,23.67
2023-05-05T01:10:19.715Z,23.71
2023-05-05T01:12:59.649Z,23.70
2023-05-05T01:15:39.995Z,23.63
2023-05-05T01:18:31.831Z,23.61
2023-05-05T01:21:10.398Z,23.70
2023-05-05T01:24:05.225Z,23.61
2023-05-05T01:27:12.130Z,23.62
2023-05-05T01:30:18.355Z,23.55
2023-05-05T01:32:56.608Z,23.60
2023-05-05T01:35:47.887Z,23.64
2023-05-05T01:38:37.988Z,23.62
2023-05-05T01:41:13.107Z,23.65
2023-05-05T01:43:42.957Z,23.66
2023-05-05T01:46:12.806Z,23.71
2023-05-05T01:48:42.773Z,23.64
2023-05-05T01:51:12.399Z,23.67
2023-05-05T01:53:43.044Z,23.63
2023-05-05T01:56:12.675Z,23.60
2023-05-05T01:58:43.262Z,23.62
2023-05-05T02:01:12.926Z,23.58
2023-05-05T02:03:43.005Z,23.61
2023-05-05T02:06:12.815Z,23.60
2023-05-05T02:08:42.432Z,23.57
2023-05-05T02:11:12.714Z,23.58
2023-05-05T02:13:43.630Z,23.57
2023-05-05T02:16:13.491Z,23.64
2023-05-05T02:18:43.147Z,23.60
2023-05-05T02:21:12.793Z,23.64
2023-05-05T02:23:42.484Z,23.64
2023-05-05T02:26:13.047Z,23.60
2023-05-05T02:29:16.197Z,23.57
2023-05-05T02:31:49.681Z,23.58
2023-05-05T02:34:26.185Z,23.59
2023-05-05T02:37:00.152Z,23.56
2023-05-05T02:39:49.584Z,23.55
2023-05-05T02:42:21.217Z,23.59
2023-05-05T02:44:50.824Z,23.60
2023-05-05T02:47:20.450Z,23.55
2023-05-05T02:49:50.060Z,23.60
2023-05-05T02:52:19.708Z,23.60
2023-05-05T02:54:49.334Z,23.61
2023-05-05T02:57:20.354Z,23.60
2023-05-05T02:59:58.930Z,23.50
2023-05-05T03:02:51.287Z,23.48
2023-05-05T03:05:30.476Z,23.56
2023-05-05T03:08:19.104Z,23.56
2023-05-05T03:11:41.013Z,23.53
2023-05-05T03:14:15.369Z,23.54
2023-05-05T03:16:45.084Z,23.57
2023-05-05T03:19:16.918Z,23.57
2023-05-05T03:21:46.514Z,23.62
2023-05-05T03:24:20.017Z,23.62
2023-05-05T03:26:50.597Z,23.57
2023-05-05T03:29:20.195Z,23.61
2023-05-05T03:31:49.908Z,23.59
2023-05-05T03:34:19.564Z,23.57
2023-05-05T03:36:49.251Z,23.58
2023-05-05T03:39:20.334Z,23.59
2023-05-05T03:41:50.024Z,23.61
2023-05-05T03:44:19.629Z,23.58
2023-05-05T03:46:49.293Z,23.59
2023-05-05T03:49:18.902Z,23.57
2023-05-05T03:51:48.964Z,23.56
2023-05-05T03:54:18.700Z,23.55
2023-05-05T03:56:48.333Z,23.56
2023-05-05T03:59:18.872Z,23.59
2023-05-05T04:01:50.470Z,23.55
2023-05-05T04:04:20.151Z,23.54
2023-05-05T04:06:49.824Z,23.55
2023-05-05T04:09:19.515Z,23.62
2023-05-05T04:11:49.140Z,23.55
2023-05-05T04:14:18.806Z,23.54
2023-05-05T04:16:48.454Z,23.55
2023-05-05T04:19:19.067Z,23.57
2023-05-05T04:21:48.889Z,23.56
2023-05-05T04:24:20.650Z,23.59
2023-05-05T04:26:50.337Z,23.56
2023-05-05T04:29:20.039Z,23.54
2023-05-05T04:31:49.886Z,23.55
2023-05-05T04:34:19.679Z,23.56
2023-05-05T04:36:49.385Z,23.54
2023-05-05T04:39:19.024Z,23.60
2023-05-05T04:41:48.794Z,23.55
2023-05-05T04:44:18.447Z,23.58
2023-05-05T04:46:48.058Z,23.54
2023-05-05T04:49:17.728Z,23.56
2023-05-05T04:51:48.114Z,23.55
2023-05-05T04:54:17.821Z,23.61
2023-05-05T04:56:47.532Z,23.57
2023-05-05T04:59:17.765Z,23.59
2023-05-05T05:01:47.952Z,23.54
2023-05-05T05:04:19.970Z,23.80
2023-05-05T05:06:49.579Z,23.90
2023-05-05T05:09:19.198Z,23.95
2023-05-05T05:11:48.782Z,23.95
2023-05-05T05:14:18.689Z,23.93
2023-05-05T05:16:52.743Z,23.85
2023-05-05T05:19:22.833Z,23.50
2023-05-05T05:21:52.518Z,23.78
2023-05-05T05:24:22.212Z,23.89
2023-05-05T05:26:51.872Z,23.97
2023-05-05T05:29:22.048Z,23.96
2023-05-05T05:31:51.795Z,24.00
2023-05-05T05:34:21.467Z,24.01
2023-05-05T05:36:51.051Z,24.01
2023-05-05T05:39:20.705Z,24.03
2023-05-05T05:41:50.268Z,24.07
2023-05-05T05:44:19.975Z,24.06
2023-05-05T05:46:49.563Z,24.10
2023-05-05T05:49:19.208Z,24.11
2023-05-05T05:51:48.876Z,24.03
2023-05-05T05:54:18.538Z,24.05
2023-05-05T05:56:48.209Z,24.10
2023-05-05T05:59:17.850Z,24.06
2023-05-05T06:01:47.521Z,24.15
2023-05-05T06:04:17.184Z,24.19
2023-05-05T06:06:47.103Z,24.19
2023-05-05T06:09:16.825Z,24.21
2023-05-05T06:11:46.554Z,24.14
2023-05-05T06:14:17.061Z,24.14
2023-05-05T06:16:47.793Z,24.05
2023-05-05T06:19:17.394Z,24.17
2023-05-05T06:21:47.006Z,24.19
2023-05-05T06:24:16.688Z,24.19
2023-05-05T06:26:46.345Z,24.11
2023-05-05T06:29:15.952Z,24.15
2023-05-05T06:31:45.634Z,24.19
2023-05-05T06:34:15.352Z,24.21
2023-05-05T06:36:45.101Z,24.17
2023-05-05T06:39:16.079Z,24.19
2023-05-05T06:41:46.015Z,24.21
2023-05-05T06:44:15.692Z,24.21
2023-05-05T06:46:45.387Z,24.21
2023-05-05T06:49:15.046Z,24.24
2023-05-05T06:51:44.644Z,24.23
2023-05-05T06:54:14.296Z,24.24
2023-05-05T06:56:43.956Z,24.25
2023-05-05T06:59:13.694Z,24.25
2023-05-05T07:01:43.292Z,24.27
2023-05-05T07:04:13.250Z,24.26
2023-05-05T07:06:42.992Z,24.25
2023-05-05T07:09:13.047Z,24.24
2023-05-05T07:11:43.102Z,24.10
2023-05-05T07:14:12.801Z,24.08
2023-05-05T07:16:42.515Z,24.02
2023-05-05T07:19:12.239Z,23.98
2023-05-05T07:21:41.945Z,23.92
2023-05-05T07:24:11.618Z,23.90
2023-05-05T07:26:41.372Z,23.89
2023-05-05T07:29:11.004Z,23.91
2023-05-05T07:31:40.630Z,23.92
2023-05-05T07:34:10.258Z,23.85
2023-05-05T07:36:40.087Z,23.84
2023-05-05T07:39:09.798Z,23.82
2023-05-05T07:41:39.623Z,23.83
2023-05-05T07:44:09.205Z,23.83
2023-05-05T07:46:38.914Z,23.81
2023-05-05T07:49:08.635Z,23.87
2023-05-05T07:51:38.455Z,23.82
2023-05-05T07:54:08.185Z,23.82
2023-05-05T07:56:37.933Z,23.80
2023-05-05T07:59:07.549Z,23.79
2023-05-05T08:01:37.400Z,23.78
2023-05-05T08:04:07.513Z,23.79
2023-05-05T08:06:37.654Z,23.79
2023-05-05T08:09:07.378Z,23.78
2023-05-05T08:11:36.987Z,23.77
2023-05-05T08:14:06.698Z,23.74
2023-05-05T08:16:36.605Z,23.76
2023-05-05T08:19:12.057Z,23.73
2023-05-05T08:21:51.078Z,23.75
2023-05-05T08:24:20.754Z,23.74
2023-05-05T08:26:50.797Z,23.78
2023-05-05T08:29:20.499Z,23.73
2023-05-05T08:31:50.132Z,23.70
2023-05-05T08:34:19.811Z,23.75
2023-05-05T08:36:50.747Z,23.73
2023-05-05T08:39:20.777Z,23.70
2023-05-05T08:41:50.642Z,23.67
2023-05-05T08:44:20.279Z,23.66
2023-05-05T08:46:50.598Z,23.65
2023-05-05T08:49:20.398Z,23.62
2023-05-05T08:51:50.048Z,23.70
2023-05-05T08:54:23.488Z,23.68
2023-05-05T08:56:53.166Z,23.67
2023-05-05T08:59:26.680Z,23.67
2023-05-05T09:01:56.373Z,23.69
2023-05-05T09:04:26.050Z,23.66
2023-05-05T09:06:55.680Z,23.69
2023-05-05T09:09:25.280Z,23.75
2023-05-05T09:11:55.380Z,23.71
2023-05-05T09:14:25.037Z,23.72
2023-05-05T09:16:54.763Z,23.67
2023-05-05T09:19:24.448Z,23.63
2023-05-05T09:21:54.149Z,23.66
2023-05-05T09:24:23.799Z,23.63
2023-05-05T09:26:53.438Z,23.66
2023-05-05T09:29:24.001Z,23.65
2023-05-05T09:32:12.777Z,23.64
2023-05-05T09:34:42.544Z,23.62
2023-05-05T09:37:12.284Z,23.60
2023-05-05T09:39:42.674Z,23.61
2023-05-05T09:42:21.109Z,23.60
2023-05-05T09:44:50.735Z,23.63
2023-05-05T09:47:29.642Z,23.63
2023-05-05T09:50:02.719Z,23.58
2023-05-05T09:52:33.522Z,23.57
2023-05-05T09:55:03.172Z,23.61
2023-05-05T09:57:34.802Z,23.57
2023-05-05T10:00:05.786Z,23.63
2023-05-05T10:02:41.064Z,23.61
2023-05-05T10:05:18.183Z,23.57
2023-05-05T10:07:48.757Z,23.61
2023-05-05T10:10:19.036Z,23.62
2023-05-05T10:12:51.847Z,23.56
2023-05-05T10:15:21.474Z,23.59
2023-05-05T10:18:06.155Z,23.57
2023-05-05T10:20:36.652Z,23.41
2023-05-05T10:23:08.457Z,23.58
2023-05-05T10:25:52.392Z,23.63
2023-05-05T10:28:49.670Z,23.58
2023-05-05T10:31:49.520Z,23.58
2023-05-05T10:34:52.882Z,23.50
2023-05-05T10:37:23.292Z,23.55
2023-05-05T10:39:54.076Z,23.62
2023-05-05T10:42:24.588Z,23.57
2023-05-05T10:44:55.017Z,23.58
2023-05-05T10:47:25.047Z,23.56
2023-05-05T10:50:02.757Z,23.53
2023-05-05T10:52:37.952Z,23.58
2023-05-05T10:55:22.876Z,23.54
2023-05-05T10:57:55.007Z,23.53
2023-05-05T11:00:42.921Z,23.55
2023-05-05T11:03:22.510Z,23.63
2023-05-05T11:06:07.489Z,23.84
2023-05-05T11:08:40.964Z,23.91
2023-05-05T11:11:13.681Z,23.95
2023-05-05T11:13:43.511Z,23.99
2023-05-05T11:16:48.900Z,23.93
2023-05-05T11:19:46.174Z,23.92
2023-05-05T11:22:15.944Z,23.98
2023-05-05T11:24:46.330Z,23.97
2023-05-05T11:27:16.023Z,23.99
2023-05-05T11:30:08.882Z,23.95
2023-05-05T11:32:38.864Z,23.98
2023-05-05T11:35:09.263Z,24.00
2023-05-05T11:37:38.954Z,24.00
2023-05-05T11:40:17.641Z,23.97
2023-05-05T11:42:47.869Z,23.99
2023-05-05T11:45:26.690Z,23.97
2023-05-05T11:48:18.201Z,24.00
2023-05-05T11:50:47.923Z,23.97
2023-05-05T11:53:17.690Z,23.99
2023-05-05T11:55:47.281Z,23.99
2023-05-05T11:58:23.347Z,23.96
2023-05-05T12:00:53.241Z,24.00
2023-05-05T12:03:23.016Z,24.01
2023-05-05T12:05:56.841Z,23.99
2023-05-05T12:08:26.496Z,23.99
2023-05-05T12:11:04.255Z,23.99
2023-05-05T12:13:33.972Z,24.01
2023-05-05T12:16:21.510Z,23.94
2023-05-05T12:18:51.141Z,24.00
2023-05-05T12:21:23.904Z,23.99
2023-05-05T12:23:53.531Z,23.98
2023-05-05T12:26:30.508Z,23.97
2023-05-05T12:29:00.776Z,23.97
2023-05-05T12:31:43.547Z,23.96
2023-05-05T12:34:13.428Z,23.99
2023-05-05T12:36:43.176Z,24.00
2023-05-05T12:39:13.572Z,23.99
2023-05-05T12:41:43.167Z,23.99
2023-05-05T12:44:12.828Z,23.99
2023-05-05T12:46:53.929Z,23.95
2023-05-05T12:49:23.637Z,23.99
2023-05-05T12:51:57.135Z,23.98
2023-05-05T12:54:26.855Z,23.98
2023-05-05T12:56:57.889Z,24.01
2023-05-05T12:59:30.834Z,23.99
2023-05-05T13:02:03.898Z,23.98
2023-05-05T13:04:34.190Z,23.97
2023-05-05T13:07:16.927Z,23.95
2023-05-05T13:09:46.640Z,23.98
2023-05-05T13:12:17.239Z,23.98
2023-05-05T13:14:47.309Z,24.00
2023-05-05T13:17:17.209Z,24.01
2023-05-05T13:19:49.586Z,24.00
2023-05-05T13:22:19.265Z,23.99
2023-05-05T13:24:52.475Z,24.00
2023-05-05T13:27:22.822Z,23.98
2023-05-05T13:29:52.511Z,23.96
2023-05-05T13:32:24.626Z,23.99
2023-05-05T13:34:54.251Z,23.96
2023-05-05T13:37:24.047Z,23.99
2023-05-05T13:39:53.766Z,23.98
2023-05-05T13:42:23.397Z,23.97
2023-05-05T13:44:53.184Z,23.99
2023-05-05T13:47:22.954Z,24.00
2023-05-05T13:49:52.739Z,23.99
2023-05-05T13:52:22.460Z,23.98
2023-05-05T13:54:52.138Z,24.00
2023-05-05T13:57:21.951Z,23.97
2023-05-05T13:59:51.603Z,23.99
2023-05-05T14:02:21.258Z,24.00
2023-05-05T14:04:50.895Z,23.97
2023-05-05T14:07:20.801Z,23.97
2023-05-05T14:09:50.424Z,23.98
2023-05-05T14:12:20.046Z,23.98
2023-05-05T14:14:50.965Z,23.97
2023-05-05T14:17:20.642Z,24.01
2023-05-05T14:19:50.257Z,23.97
2023-05-05T14:22:19.960Z,23.96
2023-05-05T14:24:49.599Z,23.99
2023-05-05T14:27:19.228Z,24.01
2023-05-05T14:29:48.891Z,23.99
2023-05-05T14:32:18.627Z,23.99
2023-05-05T14:34:50.339Z,23.99
2023-05-05T14:37:20.243Z,24.02
2023-05-05T14:39:49.976Z,24.02
2023-05-05T14:42:19.630Z,24.01
2023-05-05T14:44:49.280Z,24.01
2023-05-05T14:47:18.964Z,24.01
2023-05-05T14:49:48.579Z,23.98
2023-05-05T14:52:18.254Z,23.99
2023-05-05T14:54:48.256Z,23.97
2023-05-05T14:57:18.008Z,23.97
2023-05-05T14:59:47.900Z,23.97
2023-05-05T15:02:17.563Z,23.97
2023-05-05T15:04:49.210Z,23.96
2023-05-05T15:07:19.444Z,23.97
2023-05-05T15:09:49.083Z,23.97
2023-05-05T15:12:18.737Z,23.95
2023-05-05T15:14:48.369Z,24.00
2023-05-05T15:17:18.072Z,24.00
2023-05-05T15:19:47.762Z,23.99
2023-05-05T15:22:17.447Z,23.99
2023-05-05T15:24:47.845Z,24.01
2023-05-05T15:27:17.781Z,23.99
2023-05-05T15:29:47.806Z,24.01
2023-05-05T15:32:17.436Z,24.02
2023-05-05T15:34:49.610Z,23.99
2023-05-05T15:37:19.964Z,24.01
2023-05-05T15:39:49.654Z,23.98
2023-05-05T15:42:19.283Z,23.99
2023-05-05T15:44:48.922Z,24.01
2023-05-05T15:47:18.564Z,24.00
2023-05-05T15:49:48.190Z,23.98
2023-05-05T15:52:17.857Z,23.98
2023-05-05T15:54:47.498Z,23.98
2023-05-05T15:57:17.258Z,23.98
2023-05-05T15:59:47.024Z,23.97
2023-05-05T16:02:16.641Z,23.94
2023-05-05T16:04:46.345Z,23.92
2023-05-05T16:07:15.966Z,23.92
2023-05-05T16:09:45.989Z,23.90
2023-05-05T16:12:18.679Z,23.88
2023-05-05T16:14:48.594Z,23.90
2023-05-05T16:17:18.737Z,23.88
2023-05-05T16:19:49.566Z,23.85
2023-05-05T16:22:19.234Z,23.85
2023-05-05T16:24:48.909Z,23.83
2023-05-05T16:27:19.025Z,23.76
2023-05-05T16:29:48.672Z,23.77
2023-05-05T16:32:18.282Z,23.80
2023-05-05T16:34:47.956Z,23.83
2023-05-05T16:37:17.661Z,23.80
2023-05-05T16:39:47.309Z,23.80
2023-05-05T16:42:17.005Z,23.75
2023-05-05T16:44:46.585Z,23.75
2023-05-05T16:47:16.215Z,23.69
2023-05-05T16:49:45.851Z,23.73
2023-05-05T16:52:15.492Z,23.77
2023-05-05T16:54:45.279Z,23.72
2023-05-05T16:57:15.218Z,23.68
2023-05-05T16:59:44.834Z,23.71
2023-05-05T17:02:14.493Z,23.76
2023-05-05T17:04:44.174Z,23.70
2023-05-05T17:07:13.801Z,23.70
2023-05-05T17:09:43.557Z,23.70
2023-05-05T17:12:13.196Z,23.65
2023-05-05T17:14:43.373Z,23.67
2023-05-05T17:17:13.046Z,23.72
2023-05-05T17:19:44.181Z,23.70
2023-05-05T17:22:13.918Z,23.73
2023-05-05T17:24:44.575Z,23.72
2023-05-05T17:27:15.029Z,23.70
2023-05-05T17:29:44.666Z,23.70
2023-05-05T17:32:14.330Z,23.66
2023-05-05T17:34:45.551Z,23.67
2023-05-05T17:37:16.429Z,23.68
2023-05-05T17:39:46.057Z,23.64
2023-05-05T17:42:15.763Z,23.62
2023-05-05T17:44:47.017Z,23.67
2023-05-05T17:47:17.517Z,23.66
2023-05-05T17:49:47.235Z,23.66
2023-05-05T17:52:17.495Z,23.65
2023-05-05T17:54:47.749Z,23.65
2023-05-05T17:57:22.518Z,23.64
2023-05-05T18:00:00.289Z,23.61
2023-05-05T18:02:29.981Z,23.61
2023-05-05T18:04:59.663Z,23.64
2023-05-05T18:07:29.958Z,23.66
2023-05-05T18:09:59.733Z,23.67
2023-05-05T18:12:29.361Z,23.68
2023-05-05T18:14:59.045Z,23.67
2023-05-05T18:17:29.060Z,23.67
2023-05-05T18:19:58.826Z,23.63
2023-05-05T18:22:28.491Z,23.66
2023-05-05T18:25:00.556Z,23.63
2023-05-05T18:27:30.632Z,23.61
2023-05-05T18:30:00.213Z,23.59
2023-05-05T18:32:29.859Z,23.60
2023-05-05T18:34:59.537Z,23.60
2023-05-05T18:37:29.532Z,23.62
2023-05-05T18:39:59.138Z,23.60
2023-05-05T18:42:28.774Z,23.58
2023-05-05T18:45:01.197Z,23.57
2023-05-05T18:47:30.857Z,23.55
2023-05-05T18:50:00.533Z,23.57
2023-05-05T18:52:30.252Z,23.54
2023-05-05T18:55:00.968Z,23.53
2023-05-05T18:57:30.729Z,23.53
2023-05-05T19:00:00.634Z,23.53
2023-05-05T19:02:30.318Z,23.50
2023-05-05T19:05:00.931Z,23.54
2023-05-05T19:07:34.914Z,23.55
2023-05-05T19:10:06.923Z,23.52
2023-05-05T19:12:36.702Z,23.53
2023-05-05T19:15:06.875Z,23.51
2023-05-05T19:17:36.892Z,23.52
2023-05-05T19:20:06.828Z,23.54
2023-05-05T19:22:36.511Z,23.47
2023-05-05T19:25:06.273Z,23.51
2023-05-05T19:27:36.000Z,23.53
2023-05-05T19:30:09.326Z,23.48
2023-05-05T19:32:38.971Z,23.45
2023-05-05T19:35:11.905Z,23.52
2023-05-05T19:37:42.560Z,23.47
2023-05-05T19:40:13.086Z,23.50
2023-05-05T19:42:43.077Z,23.48
2023-05-05T19:45:12.758Z,23.46
2023-05-05T19:47:42.495Z,23.46
2023-05-05T19:50:12.876Z,23.44
2023-05-05T19:52:45.416Z,23.51
2023-05-05T19:55:15.094Z,23.50
2023-05-05T19:57:45.424Z,23.46
2023-05-05T20:00:15.544Z,23.44
2023-05-05T20:02:46.768Z,23.45
2023-05-05T20:05:18.669Z,23.47
2023-05-05T20:07:48.685Z,23.46
2023-05-05T20:10:19.023Z,23.47
2023-05-05T20:12:51.773Z,23.50
2023-05-05T20:15:22.169Z,23.50
2023-05-05T20:17:52.067Z,23.46
2023-05-05T20:20:23.460Z,23.44
2023-05-05T20:22:53.130Z,23.44
2023-05-05T20:25:23.120Z,23.47
2023-05-05T20:27:52.799Z,23.45
2023-05-05T20:30:22.495Z,23.43
2023-05-05T20:32:52.367Z,23.47
2023-05-05T20:35:22.661Z,23.43
2023-05-05T20:37:52.997Z,23.41
2023-05-05T20:40:22.602Z,23.42
2023-05-05T20:42:52.408Z,23.45
2023-05-05T20:45:22.093Z,23.43
2023-05-05T20:47:51.916Z,23.43
2023-05-05T20:50:24.785Z,23.41
2023-05-05T20:52:54.461Z,23.43
2023-05-05T20:55:24.189Z,23.37
2023-05-05T20:57:53.862Z,23.45
2023-05-05T21:00:23.581Z,23.39
2023-05-05T21:02:53.435Z,23.39
2023-05-05T21:05:23.329Z,23.37
2023-05-05T21:07:53.524Z,23.37
2023-05-05T21:10:23.283Z,23.34
2023-05-05T21:12:53.038Z,23.32
2023-05-05T21:15:22.764Z,23.33
2023-05-05T21:17:52.772Z,23.29
2023-05-05T21:20:23.038Z,23.30
2023-05-05T21:22:52.763Z,23.30
2023-05-05T21:25:23.395Z,23.30
2023-05-05T21:27:52.998Z,23.32
2023-05-05T21:30:24.368Z,23.27
2023-05-05T21:32:54.403Z,23.20
2023-05-05T21:35:24.148Z,23.20
2023-05-05T21:37:53.820Z,23.23
2023-05-05T21:40:23.567Z,23.16
2023-05-05T21:42:53.258Z,23.19
2023-05-05T21:45:23.009Z,23.18
2023-05-05T21:47:52.864Z,23.20
2023-05-05T21:50:22.721Z,23.16
2023-05-05T21:52:56.933Z,23.16
2023-05-05T21:55:26.785Z,23.19
2023-05-05T21:57:56.480Z,23.15
2023-05-05T22:00:26.271Z,23.10
2023-05-05T22:02:55.982Z,23.13
2023-05-05T22:05:26.044Z,23.11
2023-05-05T22:07:55.820Z,23.10
2023-05-05T22:10:25.920Z,23.06
2023-05-05T22:12:55.640Z,23.09
2023-05-05T22:15:27.583Z,23.08
2023-05-05T22:17:59.709Z,23.11
2023-05-05T22:20:30.162Z,23.11
2023-05-05T22:22:59.889Z,23.14
2023-05-05T22:25:29.526Z,23.09
2023-05-05T22:27:59.120Z,23.16
2023-05-05T22:30:28.814Z,23.00
2023-05-05T22:32:58.470Z,23.05
2023-05-05T22:35:28.424Z,22.99
2023-05-05T22:37:58.101Z,22.99
2023-05-05T22:40:27.869Z,22.97
2023-05-05T22:42:57.554Z,22.94
2023-05-05T22:45:27.720Z,23.00
2023-05-05T22:47:57.413Z,22.96
2023-05-05T22:50:29.199Z,22.94
2023-05-05T22:52:59.672Z,22.96
2023-05-05T22:55:29.449Z,22.93
2023-05-05T22:57:59.188Z,22.89
2023-05-05T23:00:30.732Z,22.94
2023-05-05T23:03:00.653Z,22.90
2023-05-05T23:05:30.441Z,22.93
2023-05-05T23:08:02.681Z,22.95
2023-05-05T23:10:32.605Z,22.97
2023-05-05T23:13:02.558Z,22.94
2023-05-05T23:15:32.472Z,22.92
2023-05-05T23:18:02.266Z,22.87
2023-05-05T23:20:32.251Z,22.87
2023-05-05T23:23:01.927Z,22.92
2023-05-05T23:25:31.631Z,22.87
2023-05-05T23:28:01.250Z,22.82
2023-05-05T23:30:30.968Z,22.79
2023-05-05T23:33:02.405Z,22.83
2023-05-05T23:35:32.123Z,22.83
2023-05-05T23:38:01.789Z,22.79
2023-05-05T23:40:31.397Z,22.73
2023-05-05T23:43:01.559Z,22.79
2023-05-05T23:45:31.223Z,22.68
2023-05-05T23:48:01.031Z,22.71
2023-05-05T23:50:31.701Z,22.74
2023-05-05T23:53:01.319Z,22.68
2023-05-05T23:55:31.429Z,22.70
2023-05-05T23:58:01.058Z,22.73
